AirNav   $300 off a Bose A20 aviation headset
 
 617 users online  

WN76 Bergseth Field Airport
Enumclaw, Washington, USA

GOING TO ENUMCLAW?


FAA INFORMATION EFFECTIVE 28 FEBRUARY 2019

Location

FAA Identifier: WN76
Lat/Long: 47-14-36.8660N / 121-55-28.3940W
47-14.614433N / 121-55.473233W
47.2435739 / -121.9245539
(estimated)
Elevation: 1100 ft. / 335 m (estimated)
Variation: 20E (1985)
From city: 4 miles NE of ENUMCLAW, WA
Time zone: UTC -8 (UTC -7 during Daylight Saving Time)
Zip code: 98022

Airport Operations

Airport use: Private use. Permission required prior to landing
Activation date: 05/1987
Control tower: no
ARTCC: SEATTLE CENTER
FSS: SEATTLE FLIGHT SERVICE STATION
Attendance: ON CALL ON CALL ON CALL
ON CALL CTC AMGR 425-999-0875.
Wind indicator: yes
Segmented circle: no

Airport Communications

WX AWOS-3 at PLU (17 nm SW): 128.575 (253-848-2748)
WX ASOS at RNT (19 nm NW): 126.95 (425-255-6080)

Nearby radio navigation aids

VOR radial/distance  VOR name  Freq  Var
SEAr107/19.4SEATTLE VORTAC116.8019E
TCMr061/23.2MCCHORD VORTAC109.6015E

 
NDB name  Hdg/Dist  Freq  Var  ID
GRAYE063/28.321616EGRF --. .-. ..-.
LACOMAS045/29.432816ELAC .-.. .- -.-.

Airport Services

Runway Information

Runway 10/28

Dimensions: 2100 x 60 ft. / 640 x 18 m
Surface: turf/dirt
RUNWAY 10  RUNWAY 28
Traffic pattern: leftleft
Obstructions: 65 ft. hill100 ft. hill, 300 ft. from runway

Airport Ownership and Management from official FAA records

Ownership: Privately-owned
Owner: WALTER & EVELYN BERGSETH
31500 SE 408TH
ENUMCLAW, WA 98022
Phone 360-825-7345
Manager: KENNETH BERGSETH
31500 SE 408TH
ENUMCLAW, WA 98022
Phone (360) 825-7345
KEN BERGSETH- 360-825-7345 OPER10@YAHOO.COM - CELL 253-569-4861

Airport Operational Statistics

Aircraft based on the field: 3
Gliders airplanes: 3
    

Additional Remarks

ANIMALS ON & INVOF RY.
FOR CD CTC SEATTLE APCH AT 206-214-4794.

Instrument Procedures

There are no published instrument procedures at WN76.

Some nearby airports with instrument procedures:

S50 - Auburn Municipal Airport (13 nm W)
KPLU - Pierce County Airport - Thun Field (17 nm SW)
KRNT - Renton Municipal Airport (19 nm NW)
KSEA - Seattle-Tacoma International Airport (20 nm NW)
KBFI - Boeing Field/King County International Airport (23 nm NW)
 
Loc | Ops | Rwys | IFR | FBO | Links
Com | Nav | Svcs | Stats | Notes
Area around WN76 (Bergseth Field Airport)
 
Road maps at: MapQuest Bing Google
 
Aerial photo
WARNING: Photo may not be current or correct
Aerial photo of WN76 (Bergseth Field Airport)
Do you have a better or more recent aerial photo of Bergseth Field Airport that you would like to share? If so, please send us your photo.

 
Sectional chart

 
Airport distance calculator
Flying to Bergseth Field Airport? Find the distance to fly.

From to WN76

Sunrise and sunset
Times for 19-Mar-2019
 Local
(UTC-7)
 Zulu
(UTC)
Morning civil twilight06:4313:43
Sunrise07:1314:13
Sunset19:1802:18
Evening civil twilight19:4802:48

Current date and time
Zulu (UTC)  20-Mar-2019 04:01:03
Local (UTC-7)  19-Mar-2019 21:01:03
 
METAR
KPLU 
17nm SW 
200335Z AUTO 00000KT 10SM CLR 17/M06 A2993 RMK AO2
KRNT 
19nm NW 
200353Z AUTO 10009G18KT 10SM CLR 20/M04 A2993 RMK AO2 SLP139 T02001039 $
KSEA 
20nm NW 
200353Z 11013KT 10SM CLR 19/M05 A2994 RMK AO2 SLP142 T01941050
KTCM 
23nm W 
200258Z AUTO 10005KT 10SM CLR 19/00 A2991 RMK AO2 SLP133 T01940004 55006 FZRANO $
KSMP 
24nm E 
200256Z AUTO VRB05KT 10SM CLR 06/M04 A3010 RMK AO2 SLP201 T00611039 55005
KBFI 
24nm NW 
200353Z 12006KT 10SM CLR 19/M07 A2993 RMK AO2 SLP136 T01941067 $
KTIW 
27nm W 
200353Z AUTO 04004KT 10SM CLR 18/M04 A2993 RMK AO2 SLP133 T01831039
KGRF 
28nm W 
200258Z AUTO 00000KT 10SM CLR 18/00 A2991 RMK AO2 SLP133 T01780004 55005 $
TAF
KSEA 
20nm NW 
192103Z 1921/2024 11018G27KT P6SM FEW250 FM200500 07012KT P6SM SKC FM200900 04006KT P6SM SKC FM201500 03007KT P6SM SKC
KTCM 
23nm W 
192103Z 1921/2103 32009KT 9999 SKC QNH2994INS BECMG 2000/2001 VRB06KT 9999 FEW220 QNH2986INS BECMG 2100/2101 19009KT 9999 FEW200 QNH2985INS TX25/1923Z TN03/2013Z
KBFI 
24nm NW 
192106Z 1921/2018 11012G23KT P6SM SKC FM200000 04012KT P6SM SKC FM200600 02004KT P6SM SKC FM201500 35004KT P6SM SKC
NOTAMs
Click for the latest NOTAMs
NOTAMs are issued by the DoD/FAA and will open in a separate window not controlled by AirNav.

 

 
 

Would you like to see your business listed on this page?

 If your business provides an interesting product or service to pilots, flight crews, aircraft, or users of the Bergseth Field Airport, you should consider listing it here.  To start the listing process, click on the button below
 
Add a business
 

Other Pages about Bergseth Field Airport

Update a link
 
Copyright © AirNav, LLC. All rights reserved. Privacy Policy  Contact